FFT2230 KMIA-KCHS
Flight info
| Callsign | FFT2230 |
|---|---|
| Flight time | N/A |
| Altitude | 37000 |
| Route | ALTNN2 DUCEN Q87 VIYAP SAV BAGGY3 |
| Aircraft | A320/M-SDE3FGHIRWY/LB1 |
Departure
| Time | 2026-05-05 03:47 |
|---|---|
| Airport | Miami International Airport (KMIA) |
Arrival
| Time | N/A |
|---|---|
| Airport | Charleston International Airport (KCHS) |
| Time | Latitude | Longitude | Altitude | Speed | Heading |
|---|---|---|---|---|---|
| 2026-05-05 03:22 | 25.79816 | -80.28412 | 19 ft | 0 kts | 178° |
| 2026-05-05 03:34 | 25.79827 | -80.28413 | 20 ft | 2 kts | 178° |
| 2026-05-05 03:34 | 25.79844 | -80.28414 | 22 ft | 2 kts | 178° |
| 2026-05-05 03:35 | 25.79861 | -80.28414 | 20 ft | 2 kts | 178° |
| 2026-05-05 03:35 | 25.79879 | -80.28412 | 19 ft | 3 kts | 212° |
| 2026-05-05 03:35 | 25.79892 | -80.28398 | 17 ft | 3 kts | 250° |
| 2026-05-05 03:35 | 25.79895 | -80.28386 | 17 ft | 0 kts | 269° |
| 2026-05-05 03:38 | 25.79897 | -80.28409 | 17 ft | 11 kts | 279° |
| 2026-05-05 03:38 | 25.79937 | -80.28488 | 18 ft | 11 kts | 303° |
| 2026-05-05 03:38 | 25.79994 | -80.28533 | 19 ft | 10 kts | 338° |
| 2026-05-05 03:39 | 25.80025 | -80.28582 | 19 ft | 6 kts | 274° |
| 2026-05-05 03:39 | 25.80020 | -80.28666 | 22 ft | 20 kts | 267° |
| 2026-05-05 03:39 | 25.80013 | -80.28836 | 23 ft | 23 kts | 266° |
| 2026-05-05 03:39 | 25.80003 | -80.29030 | 21 ft | 27 kts | 266° |
| 2026-05-05 03:40 | 25.79997 | -80.29243 | 22 ft | 29 kts | 270° |
| 2026-05-05 03:40 | 25.79990 | -80.29484 | 15 ft | 33 kts | 266° |
| 2026-05-05 03:40 | 25.79978 | -80.29747 | 15 ft | 35 kts | 268° |
| 2026-05-05 03:40 | 25.79978 | -80.29963 | 13 ft | 0 kts | 282° |
| 2026-05-05 03:45 | 25.79980 | -80.29976 | 13 ft | 8 kts | 282° |
| 2026-05-05 03:45 | 25.80005 | -80.30080 | 15 ft | 15 kts | 289° |
| 2026-05-05 03:45 | 25.80069 | -80.30099 | 15 ft | 11 kts | 66° |
| 2026-05-05 03:45 | 25.80075 | -80.30066 | 15 ft | 0 kts | 85° |
| 2026-05-05 03:46 | 25.80075 | -80.30065 | 15 ft | 1 kts | 85° |
| 2026-05-05 03:46 | 25.80076 | -80.30030 | 14 ft | 17 kts | 89° |
| 2026-05-05 03:46 | 25.80097 | -80.29520 | 16 ft | 115 kts | 87° |
| 2026-05-05 03:46 | 25.80152 | -80.28367 | 298 ft | 164 kts | 84° |
| 2026-05-05 03:47 | 25.80230 | -80.27054 | 1324 ft | 172 kts | 86° |
| 2026-05-05 03:47 | 25.80295 | -80.25683 | 2307 ft | 186 kts | 87° |
| 2026-05-05 03:47 | 25.80357 | -80.24191 | 2817 ft | 208 kts | 88° |
| 2026-05-05 03:47 | 25.80423 | -80.22488 | 3342 ft | 233 kts | 88° |
| 2026-05-05 03:48 | 25.80494 | -80.20580 | 3930 ft | 255 kts | 87° |
| 2026-05-05 03:48 | 25.80868 | -80.18611 | 4752 ft | 268 kts | 65° |
| 2026-05-05 03:48 | 25.82005 | -80.16948 | 5614 ft | 277 kts | 38° |
| 2026-05-05 03:48 | 25.83737 | -80.16003 | 6511 ft | 282 kts | 9° |
| 2026-05-05 03:49 | 25.85704 | -80.15840 | 7433 ft | 285 kts | 359° |
| 2026-05-05 03:49 | 25.87701 | -80.15777 | 8384 ft | 290 kts | 359° |
| 2026-05-05 03:49 | 25.89721 | -80.15907 | 9299 ft | 292 kts | 346° |
| 2026-05-05 03:49 | 25.91681 | -80.16516 | 10186 ft | 297 kts | 338° |
| 2026-05-05 03:50 | 25.93729 | -80.17245 | 10563 ft | 321 kts | 338° |
| 2026-05-05 03:50 | 25.95903 | -80.18014 | 11185 ft | 332 kts | 338° |
| 2026-05-05 03:50 | 25.98132 | -80.18781 | 12001 ft | 338 kts | 341° |
| 2026-05-05 03:50 | 26.00481 | -80.19212 | 12847 ft | 346 kts | 351° |
| 2026-05-05 03:51 | 26.02889 | -80.19454 | 13688 ft | 350 kts | 351° |
| 2026-05-05 03:51 | 26.05389 | -80.19710 | 13936 ft | 371 kts | 351° |
| 2026-05-05 03:51 | 26.08004 | -80.19980 | 14331 ft | 383 kts | 351° |
| 2026-05-05 03:51 | 26.10685 | -80.20253 | 14887 ft | 390 kts | 351° |
| 2026-05-05 03:52 | 26.13409 | -80.20529 | 15468 ft | 396 kts | 350° |
| 2026-05-05 03:52 | 26.16169 | -80.20811 | 16052 ft | 401 kts | 350° |
| 2026-05-05 03:52 | 26.18969 | -80.21099 | 16645 ft | 406 kts | 350° |
| 2026-05-05 03:52 | 26.21797 | -80.21382 | 17290 ft | 410 kts | 350° |
| 2026-05-05 03:53 | 26.24651 | -80.21642 | 17982 ft | 412 kts | 350° |
| 2026-05-05 03:53 | 26.27513 | -80.21890 | 18633 ft | 414 kts | 350° |
| 2026-05-05 03:53 | 26.30395 | -80.22137 | 19266 ft | 415 kts | 350° |
| 2026-05-05 03:53 | 26.33273 | -80.22385 | 19905 ft | 416 kts | 350° |
| 2026-05-05 03:54 | 26.36158 | -80.22638 | 20554 ft | 416 kts | 349° |
| 2026-05-05 03:54 | 26.39039 | -80.22897 | 21211 ft | 415 kts | 349° |
| 2026-05-05 03:54 | 26.41914 | -80.23176 | 21885 ft | 415 kts | 349° |
| 2026-05-05 03:54 | 26.44786 | -80.23471 | 22576 ft | 414 kts | 348° |
| 2026-05-05 03:55 | 26.47647 | -80.23774 | 23276 ft | 413 kts | 348° |
| 2026-05-05 03:55 | 26.50507 | -80.24079 | 23944 ft | 412 kts | 348° |
| 2026-05-05 03:55 | 26.53358 | -80.24381 | 24552 ft | 411 kts | 348° |
| 2026-05-05 03:55 | 26.56198 | -80.24680 | 25168 ft | 409 kts | 347° |
| 2026-05-05 03:56 | 26.59009 | -80.25039 | 25741 ft | 407 kts | 346° |
| 2026-05-05 03:56 | 26.61849 | -80.25489 | 25889 ft | 417 kts | 345° |
| 2026-05-05 03:56 | 26.64732 | -80.26005 | 26163 ft | 423 kts | 344° |
| 2026-05-05 03:56 | 26.67655 | -80.26544 | 26457 ft | 429 kts | 344° |
| 2026-05-05 03:57 | 26.70586 | -80.27193 | 26750 ft | 429 kts | 339° |
| 2026-05-05 03:57 | 26.73419 | -80.28242 | 27049 ft | 429 kts | 334° |
| 2026-05-05 03:57 | 26.76218 | -80.29416 | 27380 ft | 431 kts | 334° |
| 2026-05-05 03:57 | 26.79033 | -80.30589 | 27753 ft | 432 kts | 334° |
| 2026-05-05 03:58 | 26.81851 | -80.31759 | 28180 ft | 432 kts | 334° |
| 2026-05-05 03:58 | 26.84662 | -80.32929 | 28623 ft | 430 kts | 334° |
| 2026-05-05 03:58 | 26.87465 | -80.34100 | 29076 ft | 429 kts | 334° |
| 2026-05-05 03:58 | 26.90259 | -80.35268 | 29600 ft | 425 kts | 334° |
| 2026-05-05 03:59 | 26.92983 | -80.36403 | 30530 ft | 415 kts | 334° |
| 2026-05-05 03:59 | 26.95699 | -80.37535 | 30852 ft | 418 kts | 334° |
| 2026-05-05 03:59 | 26.98437 | -80.38659 | 31016 ft | 422 kts | 334° |
| 2026-05-05 03:59 | 27.01218 | -80.39789 | 31063 ft | 428 kts | 334° |
| 2026-05-05 04:00 | 27.06804 | -80.42032 | 31066 ft | 435 kts | 334° |
| 2026-05-05 04:00 | 27.12463 | -80.44348 | 31067 ft | 431 kts | 333° |
| 2026-05-05 04:01 | 27.18026 | -80.46803 | 31066 ft | 428 kts | 332° |
| 2026-05-05 04:01 | 27.23562 | -80.49301 | 31066 ft | 428 kts | 333° |
| 2026-05-05 04:02 | 27.29128 | -80.51790 | 31071 ft | 432 kts | 333° |
| 2026-05-05 04:02 | 27.34733 | -80.54272 | 31071 ft | 433 kts | 333° |
| 2026-05-05 04:03 | 27.40367 | -80.56696 | 31072 ft | 434 kts | 334° |
| 2026-05-05 04:03 | 27.46086 | -80.58927 | 31072 ft | 435 kts | 335° |
| 2026-05-05 04:04 | 27.51819 | -80.61128 | 31074 ft | 435 kts | 335° |
| 2026-05-05 04:04 | 27.57532 | -80.63384 | 31079 ft | 435 kts | 334° |
| 2026-05-05 04:05 | 27.63229 | -80.65669 | 31083 ft | 435 kts | 334° |
| 2026-05-05 04:05 | 27.68931 | -80.67951 | 31068 ft | 435 kts | 334° |
| 2026-05-05 04:06 | 27.74636 | -80.70235 | 31080 ft | 435 kts | 334° |
| 2026-05-05 04:06 | 27.80342 | -80.72512 | 31070 ft | 435 kts | 334° |
| 2026-05-05 04:07 | 27.86044 | -80.74798 | 31077 ft | 435 kts | 334° |
| 2026-05-05 04:07 | 27.91760 | -80.77089 | 31082 ft | 436 kts | 334° |
| 2026-05-05 04:08 | 27.96521 | -80.78998 | 31080 ft | 437 kts | 334° |
| 2026-05-05 04:08 | 28.02251 | -80.81297 | 31080 ft | 438 kts | 334° |
| 2026-05-05 04:09 | 28.07991 | -80.83603 | 31082 ft | 438 kts | 334° |
| 2026-05-05 04:09 | 28.13739 | -80.85912 | 31083 ft | 438 kts | 334° |
| 2026-05-05 04:10 | 28.19489 | -80.88231 | 31080 ft | 439 kts | 334° |
| 2026-05-05 04:10 | 28.25240 | -80.90555 | 31073 ft | 439 kts | 334° |
| 2026-05-05 04:11 | 28.30915 | -80.92849 | 31084 ft | 439 kts | 334° |
| 2026-05-05 04:11 | 28.36670 | -80.95175 | 31080 ft | 440 kts | 334° |
| 2026-05-05 04:12 | 28.42441 | -80.97510 | 31085 ft | 440 kts | 333° |
| 2026-05-05 04:12 | 28.48213 | -80.99849 | 31091 ft | 440 kts | 333° |
| 2026-05-05 04:13 | 28.53987 | -81.02189 | 31094 ft | 441 kts | 333° |
| 2026-05-05 04:13 | 28.59760 | -81.04540 | 31096 ft | 441 kts | 333° |
| 2026-05-05 04:14 | 28.65543 | -81.06896 | 31097 ft | 441 kts | 333° |
| 2026-05-05 04:14 | 28.71328 | -81.09245 | 31098 ft | 442 kts | 333° |
| 2026-05-05 04:15 | 28.77126 | -81.11598 | 31103 ft | 442 kts | 333° |
| 2026-05-05 04:15 | 28.82913 | -81.13962 | 31101 ft | 442 kts | 333° |
| 2026-05-05 04:16 | 28.88708 | -81.16337 | 31100 ft | 442 kts | 333° |
| 2026-05-05 04:16 | 28.94504 | -81.18713 | 31115 ft | 443 kts | 333° |
| 2026-05-05 04:17 | 29.00306 | -81.21090 | 31121 ft | 443 kts | 333° |
| 2026-05-05 04:17 | 29.06114 | -81.23473 | 31121 ft | 444 kts | 333° |
| 2026-05-05 04:18 | 29.11855 | -81.25816 | 31116 ft | 421 kts | 333° |
| 2026-05-05 04:18 | 29.14543 | -81.26899 | 31119 ft | 400 kts | 333° |
| 2026-05-05 04:18 | 29.17105 | -81.27937 | 31117 ft | 382 kts | 332° |
| 2026-05-05 04:19 | 29.21988 | -81.29948 | 31120 ft | 369 kts | 331° |
| 2026-05-05 04:19 | 29.26847 | -81.31867 | 31112 ft | 374 kts | 337° |
| 2026-05-05 04:20 | 29.31937 | -81.33402 | 31114 ft | 386 kts | 333° |
| 2026-05-05 04:20 | 29.34519 | -81.34419 | 31115 ft | 398 kts | 332° |
| 2026-05-05 04:20 | 29.37160 | -81.35523 | 31120 ft | 410 kts | 332° |
| 2026-05-05 04:21 | 29.39875 | -81.36659 | 31106 ft | 421 kts | 332° |
| 2026-05-05 04:21 | 29.42667 | -81.37797 | 31115 ft | 431 kts | 333° |
| 2026-05-05 04:21 | 29.45645 | -81.38679 | 31111 ft | 445 kts | 340° |
| 2026-05-05 04:21 | 29.48661 | -81.39372 | 31112 ft | 445 kts | 341° |
| 2026-05-05 04:22 | 29.51697 | -81.40056 | 30984 ft | 445 kts | 341° |
| 2026-05-05 04:22 | 29.54752 | -81.40741 | 29929 ft | 448 kts | 341° |
| 2026-05-05 04:22 | 29.57818 | -81.41429 | 28639 ft | 451 kts | 341° |
| 2026-05-05 04:22 | 29.60890 | -81.42117 | 27762 ft | 447 kts | 341° |
| 2026-05-05 04:23 | 29.63910 | -81.42788 | 27120 ft | 438 kts | 341° |
| 2026-05-05 04:23 | 29.66876 | -81.43448 | 26397 ft | 432 kts | 342° |
| 2026-05-05 04:23 | 29.69842 | -81.44119 | 25196 ft | 438 kts | 342° |
| 2026-05-05 04:23 | 29.72844 | -81.44809 | 24157 ft | 442 kts | 342° |
| 2026-05-05 04:24 | 29.75876 | -81.45505 | 22938 ft | 446 kts | 343° |
| 2026-05-05 04:24 | 29.78924 | -81.46204 | 21881 ft | 446 kts | 343° |
| 2026-05-05 04:24 | 29.81955 | -81.46889 | 21024 ft | 442 kts | 343° |
| 2026-05-05 04:25 | 29.87878 | -81.48220 | 19479 ft | 432 kts | 344° |
| 2026-05-05 04:25 | 29.90805 | -81.48885 | 18752 ft | 427 kts | 344° |
| 2026-05-05 04:25 | 29.93703 | -81.49546 | 17993 ft | 422 kts | 344° |
| 2026-05-05 04:25 | 29.96569 | -81.50198 | 17216 ft | 418 kts | 345° |
| 2026-05-05 04:26 | 29.99408 | -81.50843 | 16471 ft | 414 kts | 345° |
| 2026-05-05 04:26 | 30.02222 | -81.51484 | 15757 ft | 411 kts | 345° |
| 2026-05-05 04:26 | 30.05004 | -81.52119 | 15308 ft | 402 kts | 346° |
| 2026-05-05 04:26 | 30.07684 | -81.52726 | 15189 ft | 384 kts | 346° |
| 2026-05-05 04:27 | 30.10262 | -81.53312 | 14851 ft | 373 kts | 346° |
| 2026-05-05 04:27 | 30.12790 | -81.53890 | 14285 ft | 365 kts | 346° |
| 2026-05-05 04:27 | 30.15258 | -81.54455 | 13556 ft | 353 kts | 346° |
| 2026-05-05 04:27 | 30.17594 | -81.54785 | 13415 ft | 328 kts | 358° |
| 2026-05-05 04:28 | 30.19796 | -81.54453 | 13060 ft | 313 kts | 9° |
| 2026-05-05 04:28 | 30.21908 | -81.53957 | 12447 ft | 307 kts | 9° |
| 2026-05-05 04:28 | 30.23989 | -81.53473 | 11807 ft | 303 kts | 9° |
| 2026-05-05 04:28 | 30.26043 | -81.53005 | 11166 ft | 299 kts | 9° |
| 2026-05-05 04:29 | 30.28104 | -81.52545 | 10516 ft | 296 kts | 9° |
| 2026-05-05 04:29 | 30.30093 | -81.52113 | 9897 ft | 292 kts | 9° |
| 2026-05-05 04:29 | 30.32099 | -81.51687 | 9205 ft | 288 kts | 9° |
| 2026-05-05 04:29 | 30.34061 | -81.51275 | 8535 ft | 285 kts | 9° |
| 2026-05-05 04:30 | 30.36005 | -81.50994 | 7873 ft | 279 kts | 355° |
| 2026-05-05 04:30 | 30.37809 | -81.51595 | 7350 ft | 274 kts | 328° |
| 2026-05-05 04:30 | 30.39151 | -81.53112 | 6982 ft | 270 kts | 300° |
| 2026-05-05 04:30 | 30.39712 | -81.55185 | 6595 ft | 269 kts | 272° |
| 2026-05-05 04:31 | 30.39593 | -81.57344 | 6146 ft | 269 kts | 263° |
| 2026-05-05 04:31 | 30.39148 | -81.59441 | 5717 ft | 268 kts | 251° |
| 2026-05-05 04:31 | 30.38465 | -81.61442 | 5280 ft | 267 kts | 248° |
| 2026-05-05 04:31 | 30.37744 | -81.63421 | 4888 ft | 265 kts | 248° |
| 2026-05-05 04:32 | 30.37029 | -81.65369 | 4620 ft | 258 kts | 248° |
| 2026-05-05 04:32 | 30.36350 | -81.67225 | 4485 ft | 245 kts | 248° |
| 2026-05-05 04:32 | 30.35699 | -81.69000 | 4321 ft | 235 kts | 248° |
| 2026-05-05 04:32 | 30.35067 | -81.70718 | 4097 ft | 230 kts | 248° |
| 2026-05-05 04:33 | 30.34451 | -81.72421 | 3781 ft | 229 kts | 251° |
| 2026-05-05 04:33 | 30.34283 | -81.74185 | 3639 ft | 214 kts | 276° |
| 2026-05-05 04:33 | 30.34489 | -81.75827 | 3438 ft | 201 kts | 280° |
| 2026-05-05 04:33 | 30.34736 | -81.77412 | 3062 ft | 199 kts | 281° |
| 2026-05-05 04:34 | 30.35008 | -81.78939 | 2862 ft | 191 kts | 287° |
| 2026-05-05 04:34 | 30.35767 | -81.80174 | 2603 ft | 188 kts | 322° |
| 2026-05-05 04:34 | 30.36842 | -81.81006 | 2290 ft | 189 kts | 333° |
| 2026-05-05 04:34 | 30.38097 | -81.81378 | 2062 ft | 187 kts | 360° |
| 2026-05-05 04:35 | 30.39398 | -81.81296 | 2017 ft | 187 kts | 11° |
| 2026-05-05 04:35 | 30.40679 | -81.80949 | 2024 ft | 184 kts | 20° |
| 2026-05-05 04:35 | 30.41825 | -81.80494 | 2023 ft | 164 kts | 23° |
| 2026-05-05 04:35 | 30.42796 | -81.80012 | 2046 ft | 144 kts | 29° |
| 2026-05-05 04:36 | 30.43672 | -81.79505 | 2034 ft | 138 kts | 32° |
| 2026-05-05 04:36 | 30.44511 | -81.78979 | 1927 ft | 138 kts | 31° |
| 2026-05-05 04:36 | 30.45374 | -81.78476 | 1762 ft | 140 kts | 30° |
| 2026-05-05 04:36 | 30.46236 | -81.77989 | 1561 ft | 136 kts | 30° |
| 2026-05-05 04:37 | 30.47065 | -81.77481 | 1383 ft | 133 kts | 43° |
| 2026-05-05 04:37 | 30.47584 | -81.76646 | 1229 ft | 127 kts | 74° |
| 2026-05-05 04:37 | 30.47875 | -81.75684 | 1069 ft | 126 kts | 75° |
| 2026-05-05 04:37 | 30.48165 | -81.74729 | 926 ft | 126 kts | 73° |
| 2026-05-05 04:38 | 30.48466 | -81.73769 | 736 ft | 127 kts | 73° |
| 2026-05-05 04:38 | 30.48760 | -81.72798 | 593 ft | 129 kts | 72° |
| 2026-05-05 04:38 | 30.49052 | -81.71816 | 405 ft | 129 kts | 72° |
| 2026-05-05 04:38 | 30.49357 | -81.70838 | 238 ft | 129 kts | 72° |
| 2026-05-05 04:39 | 30.49657 | -81.69865 | 67 ft | 128 kts | 71° |
| 2026-05-05 04:39 | 30.49936 | -81.68972 | 39 ft | 99 kts | 70° |
| 2026-05-05 04:39 | 30.50107 | -81.68421 | 40 ft | 45 kts | 70° |
| 2026-05-05 04:39 | 30.50167 | -81.68125 | 38 ft | 35 kts | 100° |
| 2026-05-05 04:40 | 30.50107 | -81.68009 | 38 ft | 6 kts | 147° |
| 2026-05-05 04:40 | 30.50101 | -81.68005 | 38 ft | 0 kts | 150° |
| 2026-05-05 04:42 | 30.50079 | -81.67992 | 38 ft | 7 kts | 154° |
| 2026-05-05 04:43 | 30.50029 | -81.67980 | 37 ft | 7 kts | 162° |
| 2026-05-05 04:43 | 30.49981 | -81.68012 | 37 ft | 13 kts | 246° |
| 2026-05-05 04:43 | 30.49938 | -81.68158 | 38 ft | 25 kts | 251° |
| 2026-05-05 04:43 | 30.49866 | -81.68386 | 35 ft | 30 kts | 250° |
| 2026-05-05 04:44 | 30.49777 | -81.68465 | 36 ft | 18 kts | 195° |
| 2026-05-05 04:44 | 30.49599 | -81.68507 | 37 ft | 34 kts | 196° |
| 2026-05-05 04:44 | 30.49429 | -81.68633 | 37 ft | 10 kts | 147° |
| 2026-05-05 04:44 | 30.49415 | -81.68610 | 38 ft | 0 kts | 104° |
| 2026-05-05 04:45 | 30.49414 | -81.68606 | 37 ft | 3 kts | 108° |
| 2026-05-05 04:45 | 30.49391 | -81.68593 | 39 ft | 0 kts | 170° |